createdAt,value
2022-12-28T00:02:23.393Z,88.83
2022-12-28T00:04:52.156Z,88.57
2022-12-28T00:07:20.877Z,88.92
2022-12-28T00:09:49.504Z,89.13
2022-12-28T00:12:18.932Z,88.40
2022-12-28T00:14:48.454Z,88.59
2022-12-28T00:17:17.165Z,89.44
2022-12-28T00:19:46.691Z,89.02
2022-12-28T00:22:15.379Z,89.14
2022-12-28T00:24:44.116Z,89.66
2022-12-28T00:27:12.811Z,89.06
2022-12-28T00:29:41.524Z,89.00
2022-12-28T00:32:10.351Z,89.03
2022-12-28T00:34:39.051Z,88.67
2022-12-28T00:37:12.984Z,89.94
2022-12-28T00:39:43.404Z,90.12
2022-12-28T00:42:12.052Z,90.12
2022-12-28T00:44:40.478Z,90.23
2022-12-28T00:47:09.953Z,89.72
2022-12-28T00:49:38.866Z,89.71
2022-12-28T00:52:08.504Z,89.80
2022-12-28T00:54:37.199Z,90.64
2022-12-28T00:57:05.054Z,90.91
2022-12-28T00:59:33.718Z,91.42
2022-12-28T01:02:03.430Z,91.37
2022-12-28T01:04:32.349Z,91.30
2022-12-28T01:07:00.155Z,92.86
2022-12-28T01:09:28.944Z,93.59
2022-12-28T01:11:57.728Z,93.54
2022-12-28T01:14:27.243Z,93.01
2022-12-28T01:16:56.804Z,93.99
2022-12-28T01:19:25.573Z,94.34
2022-12-28T01:21:54.359Z,94.04
2022-12-28T01:24:23.329Z,93.95
2022-12-28T01:26:52.804Z,93.43
2022-12-28T01:29:22.283Z,93.43
2022-12-28T01:31:51.833Z,93.79
2022-12-28T01:34:20.620Z,93.54
2022-12-28T01:36:50.127Z,93.19
2022-12-28T01:39:19.641Z,93.51
2022-12-28T01:41:48.393Z,93.56
2022-12-28T01:44:16.012Z,94.57
2022-12-28T01:47:01.202Z,94.73
2022-12-28T01:49:53.706Z,95.10
2022-12-28T01:52:43.385Z,95.49
2022-12-28T01:55:35.818Z,96.61
2022-12-28T01:58:25.019Z,96.87
2022-12-28T02:00:55.056Z,96.57
2022-12-28T02:03:29.648Z,96.72
2022-12-28T02:06:04.864Z,96.26
2022-12-28T02:09:04.540Z,96.13
2022-12-28T02:11:34.183Z,95.81
2022-12-28T02:14:03.778Z,95.27
2022-12-28T02:16:32.688Z,95.39
2022-12-28T02:19:00.533Z,94.71
2022-12-28T02:21:51.662Z,94.32
2022-12-28T02:25:11.974Z,93.85
2022-12-28T02:28:23.633Z,93.33
2022-12-28T02:31:40.370Z,93.27
2022-12-28T02:34:25.577Z,92.89
2022-12-28T02:37:18.252Z,93.25
2022-12-28T02:39:58.741Z,93.11
2022-12-28T02:42:29.959Z,92.67
2022-12-28T02:45:17.274Z,93.06
2022-12-28T02:48:05.897Z,93.41
2022-12-28T02:51:07.835Z,93.57
2022-12-28T02:54:01.758Z,94.05
2022-12-28T02:56:56.540Z,93.53
2022-12-28T02:59:55.963Z,93.25
2022-12-28T03:03:28.569Z,93.54
2022-12-28T03:07:06.467Z,93.23
2022-12-28T03:10:26.111Z,94.41
2022-12-28T03:13:28.904Z,93.93
2022-12-28T03:16:08.082Z,93.84
2022-12-28T03:18:56.938Z,94.56
2022-12-28T03:21:48.101Z,94.58
2022-12-28T03:24:37.831Z,95.30
2022-12-28T03:27:30.268Z,94.93
2022-12-28T03:30:32.166Z,94.50
2022-12-28T03:33:01.634Z,94.08
2022-12-28T03:36:17.208Z,94.20
2022-12-28T03:39:33.856Z,94.63
2022-12-28T03:42:52.915Z,94.51
2022-12-28T03:45:46.388Z,94.53
2022-12-28T03:48:18.069Z,94.21
2022-12-28T03:50:49.581Z,94.24
2022-12-28T03:53:26.851Z,94.38
2022-12-28T03:56:22.071Z,94.39
2022-12-28T03:58:52.869Z,94.85
2022-12-28T04:01:22.785Z,94.86
2022-12-28T04:03:51.077Z,94.62
2022-12-28T04:06:21.579Z,94.45
2022-12-28T04:08:50.350Z,94.69
2022-12-28T04:11:19.867Z,94.32
2022-12-28T04:13:50.217Z,95.28
2022-12-28T04:16:19.097Z,95.27
2022-12-28T04:18:47.883Z,95.26
2022-12-28T04:21:17.129Z,95.31
2022-12-28T04:23:44.889Z,95.53
2022-12-28T04:26:17.699Z,95.89
2022-12-28T04:28:46.508Z,96.70
2022-12-28T04:31:15.177Z,96.32
2022-12-28T04:33:43.025Z,96.68
2022-12-28T04:36:17.079Z,97.13
2022-12-28T04:38:45.788Z,97.39
2022-12-28T04:41:14.554Z,99.35
2022-12-28T04:43:44.094Z,100.00
2022-12-28T04:46:18.526Z,99.67
2022-12-28T04:48:46.331Z,100.00
2022-12-28T04:51:22.098Z,100.00
2022-12-28T04:53:50.577Z,100.00
2022-12-28T04:56:22.447Z,100.00
2022-12-28T04:59:00.754Z,100.00
2022-12-28T05:01:31.063Z,100.00
2022-12-28T05:04:00.812Z,100.00
2022-12-28T05:06:29.580Z,100.00
2022-12-28T05:08:58.791Z,100.00
2022-12-28T05:11:29.721Z,100.00
2022-12-28T05:13:59.135Z,100.00
2022-12-28T05:16:30.849Z,100.00
2022-12-28T05:18:59.642Z,100.00
2022-12-28T05:21:29.987Z,100.00
2022-12-28T05:23:59.916Z,100.00
2022-12-28T05:26:30.517Z,100.00
2022-12-28T05:29:00.134Z,100.00
2022-12-28T05:31:29.775Z,100.00
2022-12-28T05:33:58.634Z,100.00
2022-12-28T05:36:29.027Z,100.00
2022-12-28T05:38:57.386Z,100.00
2022-12-28T05:41:29.571Z,100.00
2022-12-28T05:44:00.178Z,100.00
2022-12-28T05:46:32.677Z,100.00
2022-12-28T05:49:02.318Z,100.00
2022-12-28T05:51:33.580Z,100.00
2022-12-28T05:54:06.785Z,100.00
2022-12-28T05:56:35.993Z,100.00
2022-12-28T05:59:07.782Z,100.00
2022-12-28T06:01:42.597Z,100.00
2022-12-28T06:04:21.329Z,100.00
2022-12-28T06:06:50.176Z,100.00
2022-12-28T06:09:19.744Z,100.00
2022-12-28T06:11:48.532Z,100.00
2022-12-28T06:14:16.324Z,100.00
2022-12-28T06:16:46.099Z,100.00
2022-12-28T06:19:15.594Z,100.00
2022-12-28T06:21:44.721Z,100.00
2022-12-28T06:24:14.513Z,100.00
2022-12-28T06:26:43.344Z,100.00
2022-12-28T06:29:12.807Z,100.00
2022-12-28T06:31:51.454Z,100.00
2022-12-28T06:34:19.347Z,100.00
2022-12-28T06:36:52.704Z,100.00
2022-12-28T06:39:21.383Z,100.00
2022-12-28T06:41:50.713Z,100.00
2022-12-28T06:44:18.491Z,100.00
2022-12-28T06:46:47.384Z,100.00
2022-12-28T06:49:16.057Z,100.00
2022-12-28T06:51:44.754Z,100.00
2022-12-28T06:54:14.295Z,100.00
2022-12-28T06:56:43.129Z,100.00
2022-12-28T06:59:12.670Z,100.00
2022-12-28T07:01:45.011Z,100.00
2022-12-28T07:04:14.952Z,100.00
2022-12-28T07:06:45.230Z,100.00
2022-12-28T07:09:16.723Z,100.00
2022-12-28T07:11:49.387Z,100.00
2022-12-28T07:14:19.319Z,100.00
2022-12-28T07:16:49.422Z,100.00
2022-12-28T07:19:18.930Z,100.00
2022-12-28T07:21:46.669Z,100.00
2022-12-28T07:24:14.591Z,100.00
2022-12-28T07:26:44.759Z,100.00
2022-12-28T07:29:14.364Z,100.00
2022-12-28T07:31:45.739Z,99.36
2022-12-28T07:34:16.453Z,100.00
2022-12-28T07:36:46.100Z,100.00
2022-12-28T07:39:14.793Z,99.45
2022-12-28T07:41:44.924Z,99.11
2022-12-28T07:44:12.813Z,99.04
2022-12-28T07:46:41.659Z,98.91
2022-12-28T07:49:09.452Z,97.78
2022-12-28T07:51:39.620Z,96.63
2022-12-28T07:54:07.835Z,95.64
2022-12-28T07:59:06.810Z,93.70
2022-12-28T08:01:37.469Z,94.55
2022-12-28T08:04:11.327Z,94.37
2022-12-28T08:06:43.197Z,93.62
2022-12-28T08:09:15.226Z,92.82
2022-12-28T08:11:46.626Z,93.92
2022-12-28T08:14:16.439Z,94.30
2022-12-28T08:16:46.016Z,93.25
2022-12-28T08:19:15.538Z,94.10
2022-12-28T08:21:47.128Z,92.36
2022-12-28T08:24:19.934Z,91.39
2022-12-28T08:26:50.216Z,91.72
2022-12-28T08:29:22.815Z,91.22
2022-12-28T08:31:52.329Z,91.93
2022-12-28T08:34:26.973Z,91.40
2022-12-28T08:36:57.507Z,91.61
2022-12-28T08:39:29.759Z,91.16
2022-12-28T08:41:59.422Z,91.99
2022-12-28T08:44:29.051Z,90.84
2022-12-28T08:46:58.858Z,91.37
2022-12-28T08:49:28.522Z,90.53
2022-12-28T08:51:59.127Z,91.29
2022-12-28T08:54:28.756Z,92.65
2022-12-28T08:56:58.350Z,92.15
2022-12-28T08:59:27.852Z,92.75
2022-12-28T09:01:57.504Z,92.66
2022-12-28T09:04:27.246Z,91.21
2022-12-28T09:06:56.811Z,88.69
2022-12-28T09:09:26.335Z,88.10
2022-12-28T09:11:55.901Z,88.51
2022-12-28T09:14:25.536Z,87.36
2022-12-28T09:16:55.003Z,86.27
2022-12-28T09:19:24.682Z,84.93
2022-12-28T09:21:55.510Z,85.08
2022-12-28T09:24:25.018Z,85.20
2022-12-28T09:26:55.494Z,84.71
2022-12-28T09:29:24.213Z,82.91
2022-12-28T09:31:53.661Z,83.11
2022-12-28T09:34:38.602Z,82.26
2022-12-28T09:37:08.873Z,81.29
2022-12-28T09:39:38.394Z,81.08
2022-12-28T09:42:17.405Z,80.79
2022-12-28T09:45:00.667Z,79.17
2022-12-28T09:47:49.911Z,80.83
2022-12-28T09:50:19.318Z,75.03
2022-12-28T09:53:24.058Z,74.10
2022-12-28T09:55:58.369Z,73.15
2022-12-28T09:58:30.695Z,73.25
2022-12-28T10:01:02.127Z,73.04
2022-12-28T10:03:40.657Z,72.24
2022-12-28T10:06:17.709Z,71.17
2022-12-28T10:09:01.713Z,71.11
2022-12-28T10:11:39.822Z,71.83
2022-12-28T10:14:36.199Z,71.81
2022-12-28T10:17:06.455Z,70.89
2022-12-28T10:19:34.271Z,70.59
2022-12-28T10:22:13.303Z,69.88
2022-12-28T10:24:41.694Z,70.59
2022-12-28T10:27:23.464Z,68.69
2022-12-28T10:29:55.088Z,68.26
2022-12-28T10:32:23.005Z,68.18
2022-12-28T10:35:03.479Z,67.60
2022-12-28T10:37:37.249Z,67.55
2022-12-28T10:40:27.446Z,67.64
2022-12-28T10:42:58.761Z,68.29
2022-12-28T10:45:41.065Z,67.51
2022-12-28T10:48:23.156Z,67.58
2022-12-28T10:51:14.603Z,67.68
2022-12-28T10:53:51.383Z,67.92
2022-12-28T10:56:31.166Z,67.04
2022-12-28T10:59:32.295Z,66.16
2022-12-28T11:02:30.452Z,66.80
2022-12-28T11:05:06.110Z,65.49
2022-12-28T11:07:39.279Z,65.31
2022-12-28T11:10:26.017Z,64.57
2022-12-28T11:12:58.287Z,65.34
2022-12-28T11:15:32.066Z,65.49
2022-12-28T11:18:20.595Z,65.12
2022-12-28T11:20:53.369Z,65.87
2022-12-28T11:23:31.961Z,66.14
2022-12-28T11:26:00.298Z,66.04
2022-12-28T11:28:28.218Z,66.22
2022-12-28T11:30:58.702Z,66.91
2022-12-28T11:33:46.284Z,66.73
2022-12-28T11:36:25.230Z,65.47
2022-12-28T11:38:56.605Z,66.25
2022-12-28T11:41:31.790Z,67.31
2022-12-28T11:44:06.323Z,67.20
2022-12-28T11:46:40.308Z,67.71
2022-12-28T11:49:35.617Z,67.26
2022-12-28T11:52:27.558Z,67.14
2022-12-28T11:54:57.324Z,65.77
2022-12-28T11:57:44.997Z,67.80
2022-12-28T12:00:22.811Z,68.39
2022-12-28T12:03:01.099Z,68.10
2022-12-28T12:05:38.992Z,67.62
2022-12-28T12:08:12.635Z,67.62
2022-12-28T12:10:46.165Z,67.71
2022-12-28T12:13:26.961Z,68.16
2022-12-28T12:16:05.434Z,65.83
2022-12-28T12:18:49.412Z,66.77
2022-12-28T12:21:30.310Z,67.51
2022-12-28T12:24:14.825Z,67.96
2022-12-28T12:26:51.696Z,67.82
2022-12-28T12:29:47.188Z,66.96
2022-12-28T12:33:06.017Z,66.93
2022-12-28T12:35:57.831Z,66.90
2022-12-28T12:39:16.879Z,66.62
2022-12-28T12:42:29.889Z,65.06
2022-12-28T12:45:33.521Z,63.35
2022-12-28T12:48:42.785Z,63.25
2022-12-28T12:51:32.958Z,61.76
2022-12-28T12:54:33.354Z,61.00
2022-12-28T12:57:26.935Z,61.73
2022-12-28T13:00:18.238Z,62.12
2022-12-28T13:03:40.011Z,61.94
2022-12-28T13:06:10.170Z,62.34
2022-12-28T13:09:06.891Z,63.02
2022-12-28T13:11:40.253Z,63.89
2022-12-28T13:14:24.204Z,62.88
2022-12-28T13:16:59.112Z,63.40
2022-12-28T13:19:30.039Z,64.67
2022-12-28T13:21:59.318Z,64.37
2022-12-28T13:24:30.748Z,64.32
2022-12-28T13:27:02.632Z,64.29
2022-12-28T13:29:39.756Z,64.50
2022-12-28T13:32:32.872Z,64.51
2022-12-28T13:35:28.455Z,65.97
2022-12-28T13:38:18.170Z,65.85
2022-12-28T13:40:53.888Z,66.50
2022-12-28T13:44:16.896Z,66.84
2022-12-28T13:46:53.827Z,67.81
2022-12-28T13:49:23.961Z,68.78
2022-12-28T13:51:53.913Z,68.85
2022-12-28T13:54:25.204Z,69.59
2022-12-28T13:57:20.481Z,69.63
2022-12-28T13:59:47.417Z,69.79
2022-12-28T14:02:21.893Z,68.32
2022-12-28T14:04:54.427Z,70.04
2022-12-28T14:07:29.360Z,70.43
2022-12-28T14:09:58.755Z,71.40
2022-12-28T14:12:28.255Z,70.48
2022-12-28T14:15:01.333Z,72.09
2022-12-28T14:17:30.312Z,70.94
2022-12-28T14:20:00.252Z,71.06
2022-12-28T14:22:37.207Z,71.38
2022-12-28T14:25:15.257Z,73.60
2022-12-28T14:28:03.818Z,74.36
2022-12-28T14:30:42.295Z,74.15
2022-12-28T14:33:24.956Z,71.99
2022-12-28T14:36:22.329Z,76.41
2022-12-28T14:38:57.195Z,80.97
2022-12-28T14:41:39.898Z,79.11
2022-12-28T14:44:17.859Z,78.63
2022-12-28T14:46:46.784Z,76.28
2022-12-28T14:49:34.734Z,76.29
2022-12-28T14:52:09.219Z,75.60
2022-12-28T14:54:49.064Z,80.32
2022-12-28T14:57:32.144Z,82.85
2022-12-28T15:00:35.908Z,78.53
2022-12-28T15:03:20.983Z,76.98
2022-12-28T15:05:59.749Z,78.59
2022-12-28T15:08:29.245Z,79.03
2022-12-28T15:11:00.451Z,82.98
2022-12-28T15:13:29.137Z,83.39
2022-12-28T15:16:04.305Z,83.84
2022-12-28T15:18:34.237Z,83.89
2022-12-28T15:21:05.918Z,82.63
2022-12-28T15:23:35.407Z,85.32
2022-12-28T15:26:14.486Z,85.12
2022-12-28T15:28:43.970Z,83.39
2022-12-28T15:31:20.053Z,82.62
2022-12-28T15:33:49.796Z,84.99
2022-12-28T15:36:21.826Z,87.24
2022-12-28T15:38:51.488Z,82.63
2022-12-28T15:41:39.598Z,85.94
2022-12-28T15:44:09.040Z,85.67
2022-12-28T15:46:38.544Z,89.52
2022-12-28T15:49:11.171Z,86.62
2022-12-28T15:51:42.851Z,86.02
2022-12-28T15:54:12.248Z,89.03
2022-12-28T15:56:42.685Z,88.16
2022-12-28T15:59:15.334Z,88.12
2022-12-28T16:01:46.145Z,87.95
2022-12-28T16:04:15.701Z,90.42
2022-12-28T16:06:45.473Z,90.36
2022-12-28T16:09:14.970Z,90.83
2022-12-28T16:11:43.702Z,90.90
2022-12-28T16:14:16.693Z,91.34
2022-12-28T16:16:46.015Z,91.99
2022-12-28T16:19:16.745Z,91.68
2022-12-28T16:21:45.960Z,92.66
2022-12-28T16:24:13.724Z,92.05
2022-12-28T16:26:44.604Z,93.31
2022-12-28T16:29:13.333Z,94.13
2022-12-28T16:31:41.701Z,93.57
2022-12-28T16:34:17.443Z,93.32
2022-12-28T16:36:47.699Z,96.05
2022-12-28T16:39:18.748Z,97.49
2022-12-28T16:41:48.536Z,97.39
2022-12-28T16:44:22.173Z,95.81
2022-12-28T16:46:54.128Z,95.56
2022-12-28T16:49:26.218Z,97.46
2022-12-28T16:51:54.158Z,96.84
2022-12-28T16:54:27.154Z,95.98
2022-12-28T16:56:57.661Z,96.35
2022-12-28T16:59:28.598Z,97.65
2022-12-28T17:01:58.092Z,97.91
2022-12-28T17:04:28.667Z,97.74
2022-12-28T17:06:59.727Z,97.55
2022-12-28T17:09:29.411Z,97.88
2022-12-28T17:11:59.032Z,99.24
2022-12-28T17:14:37.676Z,98.85
2022-12-28T17:17:08.393Z,97.61
2022-12-28T17:19:38.237Z,97.85
2022-12-28T17:22:07.881Z,96.98
2022-12-28T17:24:37.601Z,95.43
2022-12-28T17:27:09.088Z,95.85
2022-12-28T17:29:40.501Z,95.96
2022-12-28T17:32:09.542Z,97.29
2022-12-28T17:34:39.265Z,97.70
2022-12-28T17:37:08.211Z,97.58
2022-12-28T17:39:40.269Z,97.99
2022-12-28T17:42:10.676Z,97.69
2022-12-28T17:44:39.638Z,97.16
2022-12-28T17:47:10.724Z,96.57
2022-12-28T17:49:39.428Z,96.74
2022-12-28T17:52:09.028Z,96.30
2022-12-28T17:54:38.428Z,96.55
2022-12-28T17:57:07.122Z,95.79
2022-12-28T17:59:35.808Z,95.14
2022-12-28T18:02:10.129Z,95.17
2022-12-28T18:04:41.245Z,95.17
2022-12-28T18:07:10.740Z,94.94
2022-12-28T18:09:39.412Z,94.92
2022-12-28T18:12:08.187Z,95.04
2022-12-28T18:14:37.582Z,95.22
2022-12-28T18:17:07.117Z,94.70
2022-12-28T18:19:37.098Z,94.30
2022-12-28T18:22:05.751Z,93.64
2022-12-28T18:24:35.226Z,93.92
2022-12-28T18:27:04.741Z,93.81
2022-12-28T18:29:34.208Z,93.77
2022-12-28T18:32:01.936Z,93.01
2022-12-28T18:34:30.764Z,93.17
2022-12-28T18:37:00.352Z,94.23
2022-12-28T18:39:29.979Z,94.16
2022-12-28T18:41:59.467Z,94.84
2022-12-28T18:44:29.024Z,95.44
2022-12-28T18:46:57.709Z,95.77
2022-12-28T18:49:29.327Z,96.11
2022-12-28T18:51:57.204Z,95.70
2022-12-28T18:54:25.879Z,95.42
2022-12-28T18:56:56.488Z,94.98
2022-12-28T18:59:26.105Z,94.38
2022-12-28T19:02:06.499Z,94.19
2022-12-28T19:04:36.130Z,95.22
2022-12-28T19:07:04.947Z,96.21
2022-12-28T19:09:32.653Z,96.93
2022-12-28T19:12:00.581Z,97.42
2022-12-28T19:14:29.319Z,97.54
2022-12-28T19:16:58.797Z,97.65
2022-12-28T19:19:27.595Z,98.02
2022-12-28T19:21:59.116Z,97.66
2022-12-28T19:24:28.957Z,99.11
2022-12-28T19:26:57.735Z,99.07
2022-12-28T19:29:27.230Z,98.45
2022-12-28T19:31:56.752Z,98.56
2022-12-28T19:34:26.301Z,99.26
2022-12-28T19:36:54.989Z,100.00
2022-12-28T19:39:25.442Z,100.00
2022-12-28T19:41:54.977Z,100.00
2022-12-28T19:44:24.655Z,100.00
2022-12-28T19:46:54.996Z,100.00
2022-12-28T19:49:24.614Z,100.00
2022-12-28T19:51:55.669Z,100.00
2022-12-28T19:54:26.130Z,100.00
2022-12-28T19:56:55.697Z,99.70
2022-12-28T19:59:25.639Z,100.00
2022-12-28T20:01:55.406Z,100.00
2022-12-28T20:04:25.137Z,100.00
2022-12-28T20:06:56.167Z,100.00
2022-12-28T20:09:25.744Z,100.00
2022-12-28T20:11:55.313Z,100.00
2022-12-28T20:14:25.267Z,100.00
2022-12-28T20:16:54.924Z,100.00
2022-12-28T20:19:24.151Z,100.00
2022-12-28T20:21:52.814Z,100.00
2022-12-28T20:24:22.477Z,100.00
2022-12-28T20:26:56.402Z,100.00
2022-12-28T20:29:29.377Z,100.00
2022-12-28T20:31:58.307Z,100.00
2022-12-28T20:34:28.114Z,100.00
2022-12-28T20:36:57.638Z,100.00
2022-12-28T20:39:27.167Z,100.00
2022-12-28T20:42:15.470Z,100.00
2022-12-28T20:44:45.065Z,100.00
2022-12-28T20:47:14.742Z,100.00
2022-12-28T20:49:44.413Z,100.00
2022-12-28T20:52:13.105Z,100.00
2022-12-28T20:54:42.712Z,100.00
2022-12-28T20:57:12.274Z,100.00
2022-12-28T20:59:41.797Z,100.00
2022-12-28T21:02:11.419Z,100.00
2022-12-28T21:04:41.152Z,100.00
2022-12-28T21:07:10.769Z,100.00
2022-12-28T21:09:40.358Z,100.00
2022-12-28T21:12:09.926Z,100.00
2022-12-28T21:14:39.467Z,100.00
2022-12-28T21:17:09.006Z,100.00
2022-12-28T21:19:38.584Z,100.00
2022-12-28T21:22:07.299Z,100.00
2022-12-28T21:24:38.524Z,100.00
2022-12-28T21:27:08.671Z,100.00
2022-12-28T21:29:38.231Z,100.00
2022-12-28T21:32:09.698Z,100.00
2022-12-28T21:34:38.422Z,100.00
2022-12-28T21:37:27.457Z,100.00
2022-12-28T21:39:57.081Z,100.00
2022-12-28T21:42:28.674Z,100.00
2022-12-28T21:44:59.283Z,100.00
2022-12-28T21:47:29.847Z,100.00
2022-12-28T21:49:59.487Z,100.00
2022-12-28T21:52:32.528Z,100.00
2022-12-28T21:55:23.131Z,100.00
2022-12-28T21:57:55.145Z,100.00
2022-12-28T22:00:44.181Z,100.00
2022-12-28T22:03:33.410Z,100.00
2022-12-28T22:06:05.262Z,100.00
2022-12-28T22:08:53.996Z,100.00
2022-12-28T22:11:42.178Z,100.00
2022-12-28T22:14:11.849Z,100.00
2022-12-28T22:16:42.794Z,100.00
2022-12-28T22:19:12.747Z,100.00
2022-12-28T22:21:44.225Z,100.00
2022-12-28T22:24:13.818Z,100.00
2022-12-28T22:26:43.472Z,100.00
2022-12-28T22:29:13.083Z,100.00
2022-12-28T22:31:42.842Z,100.00
2022-12-28T22:34:12.927Z,100.00
2022-12-28T22:36:42.510Z,100.00
2022-12-28T22:39:12.639Z,100.00
2022-12-28T22:41:42.263Z,100.00
2022-12-28T22:44:11.937Z,100.00
2022-12-28T22:46:41.596Z,100.00
2022-12-28T22:49:11.225Z,100.00
2022-12-28T22:51:41.189Z,100.00
2022-12-28T22:54:11.462Z,100.00
2022-12-28T22:56:41.114Z,100.00
2022-12-28T22:59:15.419Z,100.00
2022-12-28T23:01:48.446Z,100.00
2022-12-28T23:04:18.120Z,100.00
2022-12-28T23:06:47.821Z,100.00
2022-12-28T23:09:17.569Z,100.00
2022-12-28T23:11:47.841Z,100.00
2022-12-28T23:14:43.099Z,100.00
2022-12-28T23:17:16.320Z,100.00
2022-12-28T23:20:04.654Z,100.00
2022-12-28T23:23:11.002Z,100.00
2022-12-28T23:26:00.785Z,100.00
2022-12-28T23:28:30.740Z,100.00
2022-12-28T23:31:00.596Z,100.00
2022-12-28T23:33:30.331Z,100.00
2022-12-28T23:36:05.288Z,100.00
2022-12-28T23:38:35.014Z,100.00
2022-12-28T23:41:26.681Z,100.00
2022-12-28T23:43:56.190Z,100.00
2022-12-28T23:46:25.832Z,100.00
2022-12-28T23:48:55.562Z,100.00
2022-12-28T23:51:25.181Z,100.00
2022-12-28T23:53:54.843Z,100.00
2022-12-28T23:56:25.922Z,100.00
2022-12-28T23:58:55.629Z,100.00
